Time;durP1;ratioP1;P1;durP2;ratioP2;P2;SDS_P1;SDS_P2;PMS_P1;PMS_P2;Temp;Humidity;BMP_temperature;BMP_pressure;BME280_temperature;BME280_humidity;BME280_pressure;Samples;Min_cycle;Max_cycle;Signal;HPM_P1;HPM_P2
2021/07/29 00:01:32;;;;;;;7.57;2.35;;;19.00;77.20;;;;;;5089645;28;20373;-65
2021/07/29 00:03:58;;;;;;;4.35;1.67;;;19.00;77.50;;;;;;5094387;28;20107;-65
2021/07/29 00:06:25;;;;;;;4.85;1.33;;;19.00;77.30;;;;;;5094884;28;20074;-65
2021/07/29 00:08:52;;;;;;;9.25;2.70;;;19.00;77.30;;;;;;5094092;28;20028;-65
2021/07/29 00:11:19;;;;;;;10.50;1.60;;;19.00;77.50;;;;;;5095222;28;20127;-65
2021/07/29 00:13:46;;;;;;;10.95;1.92;;;19.00;77.40;;;;;;5094129;28;20036;-65
2021/07/29 00:16:11;;;;;;;2.85;1.38;;;19.00;77.30;;;;;;5095020;28;20078;-65
2021/07/29 00:21:21;;;;;;;6.88;2.15;;;19.00;77.30;;;;;;5093494;28;20020;-65
2021/07/29 00:23:49;;;;;;;4.13;1.65;;;19.00;77.30;;;;;;5095150;28;20485;-65
2021/07/29 00:26:15;;;;;;;1.77;0.98;;;19.00;77.20;;;;;;5092305;28;20038;-65
2021/07/29 00:28:41;;;;;;;2.70;1.38;;;19.00;77.10;;;;;;5095375;28;20357;-65
2021/07/29 00:31:07;;;;;;;1.27;0.90;;;19.00;77.20;;;;;;5092889;28;20118;-65
2021/07/29 00:33:32;;;;;;;3.33;1.30;;;19.00;77.20;;;;;;5094519;28;20028;-65
2021/07/29 00:35:58;;;;;;;7.00;1.65;;;19.00;77.20;;;;;;5094499;28;20032;-65
2021/07/29 00:38:24;;;;;;;3.58;1.83;;;19.00;77.20;;;;;;5094477;28;20028;-65
2021/07/29 00:40:49;;;;;;;6.03;1.83;;;19.00;77.20;;;;;;5093605;28;20070;-65
2021/07/29 00:43:16;;;;;;;2.47;1.40;;;19.00;77.20;;;;;;5094124;28;20426;-65
2021/07/29 00:45:44;;;;;;;2.53;1.05;;;18.90;77.10;;;;;;5094900;28;20036;-65
2021/07/29 00:48:13;;;;;;;6.32;2.20;;;18.90;77.10;;;;;;5093309;28;20106;-65
2021/07/29 00:50:39;;;;;;;4.07;1.75;;;18.90;77.40;;;;;;5093375;28;20039;-65
2021/07/29 00:53:08;;;;;;;4.53;1.85;;;18.90;77.50;;;;;;5094220;28;20040;-65
2021/07/29 00:55:34;;;;;;;5.13;2.00;;;18.90;77.50;;;;;;5090286;28;20374;-65
2021/07/29 00:58:00;;;;;;;4.82;1.40;;;18.80;77.60;;;;;;5094442;28;20031;-65
2021/07/29 01:00:25;;;;;;;5.30;2.20;;;18.80;77.50;;;;;;5093539;28;20506;-65
2021/07/29 01:02:53;;;;;;;1.52;1.15;;;18.80;77.70;;;;;;5087839;28;20479;-65
2021/07/29 01:05:20;;;;;;;3.38;1.65;;;18.70;77.60;;;;;;5093790;28;20032;-65
2021/07/29 01:07:46;;;;;;;3.25;1.35;;;18.70;77.70;;;;;;5093234;28;20031;-65
2021/07/29 01:10:12;;;;;;;6.10;1.42;;;18.70;77.70;;;;;;5086955;28;20036;-65
2021/07/29 01:12:37;;;;;;;4.50;1.60;;;18.70;77.90;;;;;;5093130;28;20044;-65
2021/07/29 01:15:04;;;;;;;2.67;1.23;;;18.70;78.00;;;;;;5093201;28;20032;-65
2021/07/29 01:17:32;;;;;;;2.08;1.25;;;18.70;78.20;;;;;;5092616;28;20082;-65
2021/07/29 01:19:58;;;;;;;2.72;1.50;;;18.60;78.40;;;;;;5094146;28;20032;-65
2021/07/29 01:22:31;;;;;;;3.30;1.95;;;18.60;78.90;;;;;;5092274;28;20024;-65
2021/07/29 01:24:57;;;;;;;2.25;1.08;;;18.50;80.00;;;;;;5094016;28;20146;-65
2021/07/29 01:27:23;;;;;;;2.47;1.25;;;18.40;80.50;;;;;;5093020;28;20052;-65
2021/07/29 01:29:48;;;;;;;2.63;1.42;;;18.30;80.90;;;;;;5080156;28;20059;-65
2021/07/29 01:32:14;;;;;;;3.25;1.40;;;18.30;81.30;;;;;;5094035;28;20034;-65
2021/07/29 01:34:41;;;;;;;3.10;1.75;;;18.30;81.80;;;;;;5092050;28;20028;-65
2021/07/29 01:37:06;;;;;;;2.15;1.45;;;18.20;82.00;;;;;;5092983;28;20024;-65
2021/07/29 01:39:32;;;;;;;7.10;1.60;;;18.20;82.00;;;;;;5092610;28;20114;-65
2021/07/29 01:41:58;;;;;;;1.23;1.00;;;18.20;82.00;;;;;;5092096;28;20028;-65
2021/07/29 01:44:23;;;;;;;2.63;1.35;;;18.20;82.00;;;;;;5088228;28;20123;-65
2021/07/29 01:46:50;;;;;;;2.20;1.60;;;18.20;81.90;;;;;;5082802;28;20028;-65
2021/07/29 01:49:21;;;;;;;11.98;2.55;;;18.20;81.80;;;;;;5080146;28;20024;-65
2021/07/29 01:51:48;;;;;;;1.25;0.95;;;18.20;81.90;;;;;;5091697;28;20024;-65
2021/07/29 01:54:15;;;;;;;1.85;1.10;;;18.20;81.70;;;;;;5092914;28;20062;-65
2021/07/29 01:56:41;;;;;;;1.95;1.20;;;18.20;81.90;;;;;;5092045;28;20082;-66
2021/07/29 01:59:07;;;;;;;3.47;1.13;;;18.20;81.90;;;;;;5092518;28;20365;-65
2021/07/29 02:01:33;;;;;;;3.38;1.50;;;18.20;82.00;;;;;;5089359;28;20050;-65
2021/07/29 02:03:58;;;;;;;2.53;1.30;;;18.10;81.90;;;;;;5092370;28;20032;-65
2021/07/29 02:06:24;;;;;;;1.80;1.25;;;18.10;82.00;;;;;;5092915;28;20036;-65
2021/07/29 02:08:50;;;;;;;0.95;0.60;;;18.10;81.90;;;;;;5091319;28;20032;-65
2021/07/29 02:11:16;;;;;;;1.80;0.77;;;18.00;81.70;;;;;;5090968;28;20083;-65
2021/07/29 02:13:41;;;;;;;1.27;0.65;;;18.10;81.70;;;;;;5091081;28;20445;-65
2021/07/29 02:16:12;;;;;;;1.85;1.00;;;18.00;81.40;;;;;;5090506;28;20036;-65
2021/07/29 02:18:37;;;;;;;4.18;0.93;;;18.00;81.30;;;;;;5091436;28;20077;-65
2021/07/29 02:21:08;;;;;;;0.63;0.63;;;18.00;81.20;;;;;;5092397;28;20432;-65
2021/07/29 02:23:34;;;;;;;1.65;0.70;;;18.00;81.00;;;;;;5083651;28;20081;-65
2021/07/29 02:26:00;;;;;;;1.23;0.65;;;18.00;81.00;;;;;;5090882;28;20546;-65
2021/07/29 02:28:26;;;;;;;2.80;1.15;;;18.00;80.90;;;;;;5092127;28;20024;-65
2021/07/29 02:30:52;;;;;;;5.53;0.50;;;17.90;80.80;;;;;;5091134;28;20024;-65
2021/07/29 02:33:17;;;;;;;4.70;0.90;;;17.90;80.80;;;;;;5090815;28;20082;-65
2021/07/29 02:35:48;;;;;;;2.17;0.85;;;17.90;80.90;;;;;;5092971;28;20032;-65
2021/07/29 02:38:14;;;;;;;1.17;0.77;;;17.90;81.00;;;;;;5091286;28;20085;-65
2021/07/29 02:40:40;;;;;;;1.30;0.57;;;17.80;80.90;;;;;;5091428;28;20388;-65
2021/07/29 02:43:06;;;;;;;0.40;0.32;;;17.80;81.10;;;;;;5090345;28;20023;-65
2021/07/29 02:45:31;;;;;;;1.48;1.00;;;17.80;81.20;;;;;;5092607;28;20086;-65
2021/07/29 02:47:57;;;;;;;1.73;1.10;;;17.80;81.50;;;;;;5089860;28;20028;-65
2021/07/29 02:50:23;;;;;;;2.20;0.98;;;17.80;81.60;;;;;;5092337;28;20028;-65
2021/07/29 02:52:48;;;;;;;1.00;0.90;;;17.80;81.80;;;;;;5088875;28;20427;-65
2021/07/29 02:55:14;;;;;;;4.18;1.35;;;17.70;81.70;;;;;;5088536;28;20036;-65
2021/07/29 02:57:40;;;;;;;2.42;1.20;;;17.70;82.00;;;;;;5091404;28;20103;-65
2021/07/29 03:00:06;;;;;;;0.60;0.60;;;17.70;82.30;;;;;;5090947;28;20085;-65
2021/07/29 03:02:31;;;;;;;1.27;1.10;;;17.70;82.60;;;;;;5091603;28;20020;-65
2021/07/29 03:04:57;;;;;;;2.03;1.10;;;17.70;82.80;;;;;;5091504;28;20077;-65
2021/07/29 03:07:23;;;;;;;4.03;1.38;;;17.60;82.90;;;;;;5091832;28;20031;-65
2021/07/29 03:09:48;;;;;;;2.83;1.00;;;17.50;82.70;;;;;;5091739;28;20024;-65
2021/07/29 03:12:14;;;;;;;2.40;0.77;;;17.50;82.60;;;;;;5090723;28;20040;-65
2021/07/29 03:14:40;;;;;;;0.73;0.63;;;17.50;82.20;;;;;;5091233;28;20066;-65
2021/07/29 03:17:05;;;;;;;0.70;0.40;;;17.40;81.90;;;;;;5090681;28;20403;-65
2021/07/29 03:19:31;;;;;;;0.68;0.68;;;17.40;81.70;;;;;;5092230;28;20066;-65
2021/07/29 03:21:57;;;;;;;1.85;1.02;;;17.40;81.50;;;;;;5089800;28;20036;-65
2021/07/29 03:24:23;;;;;;;1.33;0.57;;;17.40;81.20;;;;;;5091560;28;20028;-65
2021/07/29 03:26:48;;;;;;;0.63;0.40;;;17.30;81.00;;;;;;5091878;28;20468;-65
2021/07/29 03:29:14;;;;;;;1.77;0.50;;;17.30;80.90;;;;;;5090434;28;20062;-65
2021/07/29 03:31:40;;;;;;;0.20;0.20;;;17.20;80.70;;;;;;5092158;28;20394;-65
2021/07/29 03:34:06;;;;;;;0.30;0.30;;;17.20;80.60;;;;;;5090830;28;20068;-65
2021/07/29 03:36:34;;;;;;;0.73;0.40;;;17.20;80.40;;;;;;5091179;28;20558;-65
2021/07/29 03:39:04;;;;;;;1.15;0.80;;;17.10;80.20;;;;;;5089698;28;20028;-65
2021/07/29 03:41:30;;;;;;;0.43;0.43;;;17.10;80.10;;;;;;5091877;28;20086;-65
2021/07/29 03:43:55;;;;;;;0.98;0.82;;;17.10;80.10;;;;;;5090330;28;20426;-65
2021/07/29 03:46:21;;;;;;;3.30;0.32;;;17.00;80.00;;;;;;5090689;28;20035;-65
2021/07/29 03:48:46;;;;;;;0.93;0.60;;;17.00;79.90;;;;;;5091761;28;20078;-65
2021/07/29 03:51:13;;;;;;;0.85;0.40;;;17.00;79.90;;;;;;5088997;28;20032;-65
2021/07/29 03:53:38;;;;;;;0.20;0.20;;;17.00;80.00;;;;;;5090702;28;20028;-65
2021/07/29 03:56:07;;;;;;;7.22;0.70;;;16.90;79.90;;;;;;5091372;28;20124;-65
2021/07/29 03:58:35;;;;;;;1.02;0.68;;;16.90;79.90;;;;;;5090263;28;20047;-65
2021/07/29 04:01:01;;;;;;;0.52;0.52;;;16.90;79.90;;;;;;5091690;28;20107;-65
2021/07/29 04:03:27;;;;;;;2.10;0.52;;;16.90;80.20;;;;;;5090962;28;20535;-65
2021/07/29 04:05:52;;;;;;;0.65;0.43;;;16.90;79.90;;;;;;5091381;28;20020;-65
2021/07/29 04:08:18;;;;;;;0.10;0.10;;;16.80;79.80;;;;;;5090494;28;20073;-65
2021/07/29 04:10:44;;;;;;;0.65;0.65;;;16.90;80.00;;;;;;5091540;28;20052;-65
2021/07/29 04:13:09;;;;;;;0.32;0.32;;;16.80;80.00;;;;;;5090240;28;20433;-65
2021/07/29 04:15:35;;;;;;;4.70;1.10;;;16.80;80.00;;;;;;5090882;28;20487;-65
2021/07/29 04:18:00;;;;;;;0.45;0.30;;;16.80;80.00;;;;;;5090665;28;20472;-65
2021/07/29 04:20:26;;;;;;;2.38;0.70;;;16.80;80.10;;;;;;5089575;28;20071;-65
2021/07/29 04:22:52;;;;;;;0.88;0.70;;;16.80;80.20;;;;;;5090847;28;20028;-65
2021/07/29 04:25:18;;;;;;;1.63;0.50;;;16.80;80.30;;;;;;5087753;28;20413;-65
2021/07/29 04:27:43;;;;;;;0.32;0.32;;;16.70;80.30;;;;;;5094334;28;20024;-65
2021/07/29 04:30:09;;;;;;;0.60;0.60;;;16.70;80.30;;;;;;5095226;28;20449;-65
2021/07/29 04:32:36;;;;;;;0.30;0.30;;;16.70;80.40;;;;;;5092194;28;20020;-65
2021/07/29 04:35:02;;;;;;;1.35;0.40;;;16.70;80.40;;;;;;5094881;28;20470;-65
2021/07/29 04:37:28;;;;;;;2.25;0.70;;;16.70;80.40;;;;;;5092846;28;20034;-65
2021/07/29 04:39:54;;;;;;;0.55;0.55;;;16.70;80.50;;;;;;5094292;28;20032;-65
2021/07/29 04:42:20;;;;;;;1.15;1.00;;;16.70;80.40;;;;;;5093524;28;20027;-65
2021/07/29 04:44:45;;;;;;;4.32;0.68;;;16.70;80.40;;;;;;5093337;28;20043;-65
2021/07/29 04:47:15;;;;;;;0.32;0.32;;;16.70;80.50;;;;;;5093944;28;20028;-65
2021/07/29 04:49:40;;;;;;;0.50;0.50;;;16.70;80.50;;;;;;5092357;28;21304;-65
2021/07/29 04:52:06;;;;;;;1.17;0.65;;;16.70;80.70;;;;;;5094384;28;20468;-65
2021/07/29 04:54:32;;;;;;;0.30;0.30;;;16.60;80.90;;;;;;5090525;28;20754;-65
2021/07/29 04:56:58;;;;;;;0.80;0.70;;;16.60;81.10;;;;;;5093864;28;20024;-65
2021/07/29 04:59:23;;;;;;;0.50;0.50;;;16.60;81.40;;;;;;5094554;28;20483;-65
2021/07/29 05:01:49;;;;;;;0.50;0.35;;;16.60;82.00;;;;;;5092612;28;20099;-65
2021/07/29 05:04:15;;;;;;;0.70;0.52;;;16.60;81.60;;;;;;5094553;28;20118;-65
2021/07/29 05:06:41;;;;;;;0.52;0.50;;;16.60;81.70;;;;;;5092770;28;20498;-65
2021/07/29 05:09:07;;;;;;;1.17;0.68;;;16.60;81.90;;;;;;5093390;28;20016;-65
2021/07/29 05:11:33;;;;;;;1.25;0.57;;;16.50;82.10;;;;;;5093996;28;20141;-65
2021/07/29 05:13:59;;;;;;;1.30;0.63;;;16.50;82.40;;;;;;5091970;28;20020;-65
2021/07/29 05:16:25;;;;;;;3.80;0.90;;;16.50;82.60;;;;;;5092828;28;20512;-65
2021/07/29 05:18:50;;;;;;;2.08;1.20;;;16.50;82.60;;;;;;5092698;28;20036;-65
2021/07/29 05:21:18;;;;;;;3.30;0.98;;;16.50;82.80;;;;;;5092892;28;20039;-65
2021/07/29 05:23:48;;;;;;;3.47;1.15;;;16.50;83.10;;;;;;5093132;28;20051;-65
2021/07/29 05:26:17;;;;;;;1.35;0.70;;;16.40;83.30;;;;;;5093769;28;20028;-65
2021/07/29 05:28:44;;;;;;;3.10;1.13;;;16.50;83.50;;;;;;5093066;28;20028;-65
2021/07/29 05:31:13;;;;;;;1.85;1.58;;;16.50;83.90;;;;;;5092553;28;20020;-65
2021/07/29 05:33:39;;;;;;;6.90;1.55;;;16.50;83.80;;;;;;5093342;28;20468;-65
2021/07/29 05:36:06;;;;;;;3.53;1.25;;;16.50;84.10;;;;;;5090960;28;20415;-65
2021/07/29 05:38:32;;;;;;;1.05;0.65;;;16.50;84.10;;;;;;5093452;28;20055;-65
2021/07/29 05:41:03;;;;;;;5.80;1.15;;;16.50;84.30;;;;;;5091392;28;20077;-68
2021/07/29 05:43:28;;;;;;;6.07;1.13;;;16.50;84.30;;;;;;5092541;28;20414;-71
2021/07/29 05:45:54;;;;;;;4.35;1.42;;;16.50;84.40;;;;;;5091922;28;20028;-67
2021/07/29 05:48:20;;;;;;;0.75;0.75;;;16.50;84.50;;;;;;5092656;28;20032;-68
2021/07/29 05:50:46;;;;;;;3.53;1.17;;;16.50;84.50;;;;;;5092711;28;20031;-67
2021/07/29 05:53:12;;;;;;;17.20;1.00;;;16.50;84.60;;;;;;5091776;28;20028;-67
2021/07/29 05:55:38;;;;;;;1.48;0.82;;;16.50;84.60;;;;;;5093079;28;20043;-67
2021/07/29 05:58:03;;;;;;;1.23;0.73;;;16.50;84.60;;;;;;5091872;28;20031;-67
2021/07/29 06:00:29;;;;;;;6.35;1.13;;;16.60;84.60;;;;;;5092448;28;20575;-67
2021/07/29 06:02:57;;;;;;;3.28;1.00;;;16.60;84.60;;;;;;5092538;28;20081;-67
2021/07/29 06:05:22;;;;;;;2.17;1.23;;;16.60;84.60;;;;;;5090886;28;20032;-67
2021/07/29 06:07:48;;;;;;;5.55;1.20;;;16.70;84.70;;;;;;5092357;28;20031;-70
2021/07/29 06:10:14;;;;;;;2.08;0.98;;;16.70;84.70;;;;;;5092627;28;20032;-67
2021/07/29 06:12:39;;;;;;;5.03;1.30;;;16.70;84.90;;;;;;5091640;28;20043;-67
2021/07/29 06:15:06;;;;;;;4.60;1.17;;;16.60;85.10;;;;;;5092288;28;20044;-67
2021/07/29 06:17:33;;;;;;;3.67;0.82;;;16.70;85.10;;;;;;5091685;28;20028;-67
2021/07/29 06:20:06;;;;;;;7.22;1.42;;;16.70;85.50;;;;;;5092512;28;20388;-67
2021/07/29 06:22:32;;;;;;;2.20;1.48;;;16.70;85.80;;;;;;5084414;28;20066;-66
2021/07/29 06:24:58;;;;;;;1.52;1.00;;;16.60;85.70;;;;;;5089958;28;20043;-67
2021/07/29 06:27:25;;;;;;;2.72;1.10;;;16.60;85.90;;;;;;5089281;28;20492;-66
2021/07/29 06:29:50;;;;;;;3.25;1.52;;;16.70;86.30;;;;;;5090013;28;20028;-67
2021/07/29 06:32:16;;;;;;;3.83;1.17;;;16.70;86.70;;;;;;5089027;28;20027;-67
2021/07/29 06:34:42;;;;;;;4.95;1.38;;;16.60;86.70;;;;;;5090300;28;20039;-68
2021/07/29 06:37:07;;;;;;;3.88;1.00;;;16.70;86.80;;;;;;5089080;28;20382;-68
2021/07/29 06:39:33;;;;;;;3.22;1.02;;;16.70;86.80;;;;;;5090839;28;20078;-69
2021/07/29 06:41:59;;;;;;;5.80;1.55;;;16.70;87.00;;;;;;5092002;28;20434;-68
2021/07/29 06:44:25;;;;;;;4.55;1.05;;;16.70;87.00;;;;;;5091758;28;20052;-69
2021/07/29 06:46:50;;;;;;;9.55;1.80;;;16.70;87.20;;;;;;5090648;28;20110;-69
2021/07/29 06:49:16;;;;;;;3.63;1.50;;;16.70;87.30;;;;;;5091873;28;20063;-69
2021/07/29 06:51:42;;;;;;;4.95;0.70;;;16.70;87.50;;;;;;5091165;28;20030;-69
2021/07/29 06:54:07;;;;;;;4.50;1.70;;;16.70;87.50;;;;;;5085683;28;20483;-68
2021/07/29 06:56:33;;;;;;;2.63;1.20;;;16.80;87.50;;;;;;5091440;28;20031;-68
2021/07/29 06:58:59;;;;;;;2.33;0.95;;;16.70;87.60;;;;;;5091773;28;20099;-68
2021/07/29 07:01:25;;;;;;;3.35;1.00;;;16.70;87.60;;;;;;5090538;28;20032;-69
2021/07/29 07:03:52;;;;;;;5.07;1.70;;;16.80;87.70;;;;;;5091747;28;20024;-69
2021/07/29 07:06:18;;;;;;;2.80;1.45;;;16.80;87.90;;;;;;5091180;28;20430;-70
2021/07/29 07:08:44;;;;;;;0.82;0.82;;;16.80;87.80;;;;;;5091305;28;20050;-69
2021/07/29 07:11:20;;;;;;;7.05;1.40;;;16.90;87.90;;;;;;5090826;28;20463;-68
2021/07/29 07:13:47;;;;;;;2.80;1.27;;;16.90;88.00;;;;;;5087732;28;20044;-69
2021/07/29 07:16:14;;;;;;;5.80;1.15;;;16.90;88.00;;;;;;5091875;28;20036;-69
2021/07/29 07:18:40;;;;;;;6.78;1.80;;;17.00;88.10;;;;;;5091347;28;20068;-69
2021/07/29 07:21:07;;;;;;;3.00;1.50;;;17.00;88.00;;;;;;5090172;28;20016;-69
2021/07/29 07:23:34;;;;;;;4.70;1.60;;;17.10;88.10;;;;;;5091387;28;20495;-69
2021/07/29 07:26:00;;;;;;;1.58;1.08;;;17.00;88.00;;;;;;5090387;28;20028;-68
2021/07/29 07:28:26;;;;;;;4.90;1.30;;;17.10;87.80;;;;;;5091278;28;20028;-69
2021/07/29 07:30:52;;;;;;;3.05;1.00;;;17.10;87.80;;;;;;5090648;28;20383;-69
2021/07/29 07:33:17;;;;;;;1.48;1.00;;;17.20;87.80;;;;;;5089978;28;20047;-68
2021/07/29 07:35:43;;;;;;;13.45;1.60;;;17.20;87.70;;;;;;5090273;28;20024;-68
2021/07/29 07:38:09;;;;;;;2.42;1.00;;;17.20;87.60;;;;;;5091472;28;20483;-69
2021/07/29 07:40:36;;;;;;;4.05;1.42;;;17.20;87.30;;;;;;5090925;28;20430;-69
2021/07/29 07:43:02;;;;;;;4.72;1.27;;;17.30;87.20;;;;;;5090373;28;20380;-69
2021/07/29 07:45:27;;;;;;;12.55;1.70;;;17.30;87.30;;;;;;5091241;28;20032;-68
2021/07/29 07:47:53;;;;;;;5.28;1.65;;;17.30;87.40;;;;;;5090692;28;20038;-69
2021/07/29 07:50:19;;;;;;;4.75;1.35;;;17.40;87.40;;;;;;5090469;28;20470;-68
2021/07/29 07:52:45;;;;;;;4.38;1.33;;;17.40;87.20;;;;;;5091025;28;20036;-68
2021/07/29 07:55:10;;;;;;;4.43;1.25;;;17.40;87.00;;;;;;5089676;28;20058;-68
2021/07/29 07:57:36;;;;;;;3.35;1.08;;;17.40;86.90;;;;;;5090205;28;20132;-69
2021/07/29 08:00:02;;;;;;;4.57;1.48;;;17.50;86.90;;;;;;5092536;28;20047;-69
2021/07/29 08:02:30;;;;;;;1.60;1.08;;;17.50;86.90;;;;;;5094070;28;20039;-69
2021/07/29 08:04:56;;;;;;;4.25;1.33;;;17.50;86.80;;;;;;5093952;28;20024;-68
2021/07/29 08:07:22;;;;;;;5.78;1.60;;;17.50;86.70;;;;;;5094541;28;20036;-73
2021/07/29 08:09:48;;;;;;;3.03;1.40;;;17.60;86.60;;;;;;5093737;28;20032;-69
2021/07/29 08:12:14;;;;;;;1.80;0.98;;;17.70;86.50;;;;;;5092465;28;20380;-69
2021/07/29 08:14:40;;;;;;;3.72;1.40;;;17.70;86.50;;;;;;5093891;28;20103;-68
2021/07/29 08:17:06;;;;;;;8.10;1.67;;;17.70;86.10;;;;;;5092778;28;20039;-68
2021/07/29 08:19:32;;;;;;;4.30;1.30;;;17.70;85.90;;;;;;5091747;28;20044;-69
2021/07/29 08:22:01;;;;;;;1.92;1.27;;;17.70;85.30;;;;;;5092439;28;20028;-68
2021/07/29 08:24:26;;;;;;;1.83;0.93;;;17.70;84.60;;;;;;5087954;28;20103;-68
2021/07/29 08:26:52;;;;;;;3.70;1.70;;;17.70;84.10;;;;;;5093217;28;20081;-68
2021/07/29 08:29:18;;;;;;;6.28;1.00;;;17.70;84.60;;;;;;5093343;28;20024;-68
2021/07/29 08:31:43;;;;;;;13.85;1.77;;;17.80;84.60;;;;;;5095148;28;20039;-73
2021/07/29 08:34:09;;;;;;;4.75;1.00;;;17.80;84.70;;;;;;5093422;28;20048;-68
2021/07/29 08:36:35;;;;;;;7.82;2.05;;;17.90;84.70;;;;;;5093720;28;20036;-68
2021/07/29 08:39:00;;;;;;;3.35;1.05;;;18.00;84.40;;;;;;5092277;28;20024;-68
2021/07/29 08:41:26;;;;;;;4.13;1.13;;;17.90;84.30;;;;;;5093246;28;20539;-68
2021/07/29 08:43:52;;;;;;;5.78;1.17;;;18.00;84.60;;;;;;5094552;28;20409;-68
2021/07/29 08:46:19;;;;;;;5.18;1.17;;;18.10;84.60;;;;;;5093183;28;20074;-68
2021/07/29 08:48:49;;;;;;;7.90;1.40;;;18.10;84.50;;;;;;5094061;28;20039;-68
2021/07/29 08:51:23;;;;;;;1.67;0.90;;;18.20;84.40;;;;;;5094618;28;20025;-67
2021/07/29 08:53:50;;;;;;;5.63;1.25;;;18.20;84.20;;;;;;5093217;28;20399;-69
2021/07/29 08:56:18;;;;;;;9.18;1.35;;;18.20;84.20;;;;;;5093837;28;20048;-68
2021/07/29 08:58:45;;;;;;;1.42;0.88;;;18.30;84.00;;;;;;5093192;28;20507;-68
2021/07/29 09:01:14;;;;;;;4.22;1.40;;;18.30;84.00;;;;;;5093833;28;20031;-68
2021/07/29 09:03:44;;;;;;;5.75;1.50;;;18.30;83.60;;;;;;5093746;28;20031;-68
2021/07/29 09:06:15;;;;;;;4.68;1.50;;;18.30;83.20;;;;;;5081373;28;20035;-68
2021/07/29 09:08:54;;;;;;;0.95;0.82;;;18.40;83.10;;;;;;5094369;28;20024;-68
2021/07/29 09:11:35;;;;;;;1.23;1.13;;;18.30;82.40;;;;;;5092793;28;20505;-67
2021/07/29 09:14:18;;;;;;;3.33;1.42;;;18.40;82.30;;;;;;5093395;28;20387;-68
2021/07/29 09:16:58;;;;;;;10.20;1.63;;;18.40;81.80;;;;;;5084119;28;20044;-68
2021/07/29 09:19:44;;;;;;;2.35;1.20;;;18.40;80.80;;;;;;5078029;28;20107;-68
2021/07/29 09:22:20;;;;;;;5.72;1.80;;;18.30;80.80;;;;;;5091159;28;20373;-69
2021/07/29 09:25:01;;;;;;;3.35;1.48;;;18.40;80.90;;;;;;5093689;28;20107;-72
2021/07/29 09:27:37;;;;;;;7.15;1.80;;;18.40;80.00;;;;;;5092770;28;20051;-71
2021/07/29 09:30:20;;;;;;;10.48;1.80;;;18.30;79.70;;;;;;5093392;28;20573;-71
2021/07/29 09:33:05;;;;;;;4.03;1.55;;;18.20;80.00;;;;;;5092873;28;20089;-68
2021/07/29 09:35:45;;;;;;;7.20;1.95;;;18.20;80.50;;;;;;5092646;28;20040;-68
2021/07/29 09:38:21;;;;;;;2.78;1.42;;;18.30;80.50;;;;;;5091775;28;20035;-68
2021/07/29 09:40:46;;;;;;;2.47;1.63;;;18.30;79.90;;;;;;5092710;28;20032;-76
2021/07/29 09:43:14;;;;;;;1.77;1.40;;;18.30;79.70;;;;;;5093267;28;20025;-68
2021/07/29 09:45:42;;;;;;;2.75;1.20;;;18.30;79.50;;;;;;5092071;28;20028;-68
2021/07/29 09:48:10;;;;;;;4.70;1.70;;;18.30;79.70;;;;;;5092892;28;20066;-68
2021/07/29 09:50:37;;;;;;;6.18;1.20;;;18.40;80.20;;;;;;5091538;28;20028;-69
2021/07/29 09:53:03;;;;;;;8.55;1.88;;;18.40;80.80;;;;;;5092232;28;20024;-69
2021/07/29 09:55:30;;;;;;;4.80;1.25;;;18.40;81.10;;;;;;5091917;28;20036;-69
2021/07/29 09:58:00;;;;;;;2.92;1.55;;;18.50;80.80;;;;;;5092535;28;20024;-69
2021/07/29 10:00:26;;;;;;;5.35;1.05;;;18.50;81.10;;;;;;5092618;28;20558;-69
2021/07/29 10:02:54;;;;;;;3.03;1.63;;;18.60;80.70;;;;;;5091667;28;20032;-69
2021/07/29 10:05:44;;;;;;;7.45;1.20;;;18.70;79.90;;;;;;5092680;28;20033;-69
2021/07/29 10:08:15;;;;;;;3.00;1.27;;;18.70;79.30;;;;;;5092183;28;20024;-68
2021/07/29 10:10:44;;;;;;;4.55;1.20;;;18.70;79.00;;;;;;5092238;28;20383;-69
2021/07/29 10:13:10;;;;;;;1.83;1.13;;;18.80;78.80;;;;;;5090905;28;20556;-69
2021/07/29 10:15:44;;;;;;;3.92;1.55;;;18.80;78.30;;;;;;5091934;28;20521;-67
2021/07/29 10:18:12;;;;;;;2.25;1.20;;;18.80;78.00;;;;;;5091816;28;20020;-67
2021/07/29 10:20:41;;;;;;;2.58;0.98;;;18.80;78.40;;;;;;5092229;28;20123;-67
2021/07/29 10:23:27;;;;;;;5.05;1.30;;;18.70;78.80;;;;;;5092259;28;20406;-68
2021/07/29 10:25:52;;;;;;;3.58;1.25;;;18.70;78.60;;;;;;5090461;28;20047;-68
2021/07/29 10:28:25;;;;;;;4.63;1.35;;;18.70;78.60;;;;;;5092284;28;20475;-68
2021/07/29 10:30:59;;;;;;;4.57;1.10;;;18.70;78.60;;;;;;5091276;28;20111;-67
2021/07/29 10:33:25;;;;;;;4.70;1.30;;;18.70;78.90;;;;;;5091330;28;20028;-68
2021/07/29 10:35:51;;;;;;;4.68;1.15;;;18.70;79.00;;;;;;5091112;28;20467;-67
2021/07/29 10:38:46;;;;;;;4.57;1.55;;;18.70;78.80;;;;;;5091952;28;20008;-66
2021/07/29 10:41:13;;;;;;;1.55;1.10;;;18.70;78.20;;;;;;5084452;28;20127;-67
2021/07/29 10:43:42;;;;;;;7.47;1.30;;;18.80;78.00;;;;;;5092367;28;20036;-67
2021/07/29 10:46:10;;;;;;;2.53;1.05;;;18.80;78.00;;;;;;5090750;28;20059;-67
2021/07/29 10:49:21;;;;;;;4.35;1.23;;;18.90;78.10;;;;;;5090647;28;20028;-67
2021/07/29 10:51:28;;;;;;;1.90;1.20;;;18.90;78.30;;;;;;5086243;28;20032;-67
2021/07/29 10:53:56;;;;;;;6.63;1.30;;;19.00;78.80;;;;;;5091033;28;20089;-68
2021/07/29 10:56:24;;;;;;;4.22;1.35;;;19.00;78.70;;;;;;5091549;28;20039;-67
2021/07/29 10:58:55;;;;;;;5.20;1.65;;;19.10;78.50;;;;;;5091699;28;20035;-68
2021/07/29 11:01:21;;;;;;;0.98;0.85;;;19.20;78.30;;;;;;5091593;28;20056;-68
2021/07/29 11:04:00;;;;;;;5.25;1.27;;;19.20;78.00;;;;;;5092690;28;20383;-67
2021/07/29 11:06:34;;;;;;;3.13;1.50;;;19.30;77.80;;;;;;5090211;28;20043;-68
2021/07/29 11:09:08;;;;;;;2.38;1.10;;;19.30;77.40;;;;;;5091742;28;20434;-67
2021/07/29 11:11:46;;;;;;;0.50;0.50;;;19.30;77.10;;;;;;5091771;28;20039;-67
2021/07/29 11:14:13;;;;;;;3.05;0.85;;;19.30;77.00;;;;;;5090656;28;20471;-69
2021/07/29 11:16:39;;;;;;;5.47;1.10;;;19.40;77.10;;;;;;5091049;28;20044;-68
2021/07/29 11:19:06;;;;;;;4.03;1.38;;;19.40;77.30;;;;;;5091277;28;20056;-69
2021/07/29 11:21:33;;;;;;;4.75;1.58;;;19.40;77.50;;;;;;5085667;28;20559;-68
2021/07/29 11:24:03;;;;;;;3.90;1.40;;;19.50;76.40;;;;;;5090580;28;20377;-67
2021/07/29 11:26:42;;;;;;;3.45;0.98;;;19.40;75.70;;;;;;5091124;28;20024;-70
2021/07/29 11:29:09;;;;;;;4.95;1.30;;;19.40;76.10;;;;;;5090333;28;20020;-67
2021/07/29 11:31:36;;;;;;;6.57;1.90;;;19.40;76.00;;;;;;5091602;28;20036;-67
2021/07/29 11:34:02;;;;;;;1.92;1.00;;;19.40;75.80;;;;;;5092090;28;20039;-68
2021/07/29 11:36:32;;;;;;;1.95;1.20;;;19.40;75.80;;;;;;5095581;28;20075;-67
2021/07/29 11:39:00;;;;;;;3.00;1.40;;;19.50;76.30;;;;;;5095344;28;20463;-67
2021/07/29 11:41:27;;;;;;;3.58;1.27;;;19.50;76.30;;;;;;5093517;28;20047;-67
2021/07/29 11:43:54;;;;;;;4.88;1.25;;;19.50;76.00;;;;;;5087629;28;20024;-67
2021/07/29 11:46:20;;;;;;;4.35;1.25;;;19.60;76.20;;;;;;5094252;28;20032;-70
2021/07/29 11:48:46;;;;;;;5.15;1.50;;;19.60;76.00;;;;;;5093814;28;20039;-71
2021/07/29 11:51:16;;;;;;;2.75;1.20;;;19.60;76.20;;;;;;5092884;28;20110;-70
2021/07/29 11:53:44;;;;;;;5.43;1.08;;;19.70;75.30;;;;;;5092736;28;20031;-70
2021/07/29 11:56:13;;;;;;;2.75;1.33;;;19.70;74.50;;;;;;5092664;28;20039;-69
2021/07/29 11:58:40;;;;;;;2.50;1.25;;;19.70;73.80;;;;;;5092838;28;20109;-67
2021/07/29 12:01:10;;;;;;;7.78;1.52;;;19.70;74.10;;;;;;5093527;28;20086;-71
2021/07/29 12:03:39;;;;;;;1.45;1.00;;;19.80;73.60;;;;;;5090950;28;20637;-67
2021/07/29 12:06:06;;;;;;;2.42;1.50;;;19.80;73.20;;;;;;5086525;28;20024;-67
2021/07/29 12:08:34;;;;;;;2.70;1.40;;;19.90;73.40;;;;;;5091149;28;20062;-67
2021/07/29 12:11:02;;;;;;;2.55;1.05;;;19.90;73.50;;;;;;5091657;28;20391;-67
2021/07/29 12:13:30;;;;;;;3.28;1.13;;;20.10;74.20;;;;;;5091686;28;20127;-67
2021/07/29 12:15:58;;;;;;;1.95;1.20;;;20.10;73.00;;;;;;5090324;28;20043;-67
2021/07/29 12:18:24;;;;;;;1.15;0.98;;;20.10;72.50;;;;;;5092421;28;20028;-69
2021/07/29 12:20:52;;;;;;;2.55;1.15;;;20.20;72.80;;;;;;5093111;28;20020;-69
2021/07/29 12:23:19;;;;;;;1.95;1.20;;;20.20;73.00;;;;;;5093676;28;20032;-69
2021/07/29 12:25:46;;;;;;;0.95;0.85;;;20.20;72.50;;;;;;5094712;28;20039;-68
2021/07/29 12:28:12;;;;;;;3.22;1.10;;;20.20;72.40;;;;;;5095061;28;20387;-67
2021/07/29 12:30:42;;;;;;;2.08;0.98;;;20.30;71.90;;;;;;5091985;28;20123;-67
2021/07/29 12:33:09;;;;;;;3.20;1.08;;;20.30;71.90;;;;;;5093276;28;20020;-67
2021/07/29 12:35:40;;;;;;;2.70;1.00;;;20.40;72.20;;;;;;5094038;28;20046;-67
2021/07/29 12:38:07;;;;;;;4.15;1.20;;;20.40;72.60;;;;;;5092934;28;20052;-67
2021/07/29 12:40:33;;;;;;;3.25;1.33;;;20.50;72.50;;;;;;5093999;28;20085;-67
2021/07/29 12:43:17;;;;;;;1.50;1.17;;;20.50;71.90;;;;;;5092720;28;20037;-68
2021/07/29 12:46:00;;;;;;;4.45;1.60;;;20.50;70.80;;;;;;5092717;28;20479;-67
2021/07/29 12:48:28;;;;;;;3.28;1.17;;;20.50;70.70;;;;;;5094766;28;20039;-67
2021/07/29 12:50:55;;;;;;;3.90;1.23;;;20.50;70.70;;;;;;5094764;28;20063;-67